Skagway, AK

8:51 AM AKST on February 07, 2016 (GMT -0900)
Skagway | | Change Station
CLOSE
Current Station
Airport
Location: Skagway,
Elevation: 16 ft
Nearby Weather Stations

Elev 16 ft 59.46 °N, 135.32 °W | Updated 58 minutes ago

Overcast
Overcast
37 °F
Feels Like 28 °F
N
15
Wind Variable Wind from NE
Gusts 23 mph

Today
High -- | Low -- °F
--% Chance of Precip.
Yesterday
High -- | Low -- °F
Precip. -- in
Pressure 30.04 in
Visibility 10.0 miles
Clouds Overcast 5500 ft
Windchill 28 °F
Dew Point 21 °F
Humidity 52%
Rainfall 0.00 in
Snow Depth Not available.
7:58 AM 4:33 PM
Waning Crescent, 1% visible
METAR PAGY 071653Z AUTO 04013G20KT 10SM OVC055 03/M06 A3003 RMK AO2 SLP171 T00281061 TSNO
Pressure 30.04 in
Visibility 10.0 miles
Clouds Overcast 5500 ft
Windchill 28 °F
Dew Point 21 °F
Humidity 52%
Rainfall 0.00 in
Snow Depth Not available.
7:58 AM 4:33 PM
Waning Crescent, 1% visible
METAR PAGY 071653Z AUTO 04013G20KT 10SM OVC055 03/M06 A3003 RMK AO2 SLP171 T00281061 TSNO

10-Day Weather Forecast

Almanac

Astronomy

Feb. 07, 2016 Rise Set
Actual Time
Civil Twilight
Nautical Twilight
Astronomical Twilight
Moon
Length of Visible Light
Length of Day
Tomorrow will be .
, % of the Moon is Illuminated

Today's Extremes

State Highs State Lows

Community

WunderPhotos

Upload Photos

1,891,248 photos uploaded!

WunderBlog® & News

Nearby

Air Quality

  Air Quality AQ Index Pollutant
Not available.

Snow Depth

Station Depth Elevation

Earthquake Activity

City Distance Mag. Time & Date
Minimum magnitude displayed is 2.5.

Coastal Water Temperatures

Place Temperature

Stations

Nearby Weather Stations

Station Location Temp. Windchill Dew Point Humidity Wind Precip. Elev Updated Type
                   

Watches & Warnings

There are currently no watches in effect.